Time;durP1;ratioP1;P1;durP2;ratioP2;P2;SDS_P1;SDS_P2;PMS_P1;PMS_P2;Temp;Humidity;BMP_temperature;BMP_pressure;BME280_temperature;BME280_humidity;BME280_pressure;Samples;Min_cycle;Max_cycle;Signal;HPM_P1;HPM_P2
2021/03/19 00:01:04;;;;;;;4.72;2.15;;;2.90;91.40;;;;;;5076420;28;20036;-72
2021/03/19 00:03:30;;;;;;;8.63;2.78;;;2.90;91.30;;;;;;5075676;28;20044;-72
2021/03/19 00:05:56;;;;;;;10.35;2.80;;;2.90;91.60;;;;;;5075531;28;20083;-72
2021/03/19 00:08:22;;;;;;;16.15;2.97;;;2.80;91.40;;;;;;5058287;28;20040;-72
2021/03/19 00:10:48;;;;;;;6.03;2.67;;;2.80;91.70;;;;;;5075752;28;20044;-72
2021/03/19 00:13:14;;;;;;;10.23;2.97;;;2.80;91.70;;;;;;5076179;28;20041;-72
2021/03/19 00:15:39;;;;;;;6.53;2.70;;;2.80;91.90;;;;;;5075206;28;20538;-72
2021/03/19 00:18:07;;;;;;;6.68;2.47;;;2.80;91.80;;;;;;5075524;28;20460;-72
2021/03/19 00:20:40;;;;;;;12.02;2.83;;;2.80;91.80;;;;;;5075771;28;20380;-72
2021/03/19 00:23:07;;;;;;;8.13;2.77;;;2.80;91.80;;;;;;5075562;28;20431;-72
2021/03/19 00:25:33;;;;;;;7.05;3.08;;;2.70;92.00;;;;;;5075188;28;20475;-72
2021/03/19 00:27:59;;;;;;;7.15;3.28;;;2.70;92.00;;;;;;5057510;28;20120;-72
2021/03/19 00:30:26;;;;;;;9.75;3.00;;;2.70;92.00;;;;;;5075323;28;20086;-72
2021/03/19 00:32:52;;;;;;;10.68;2.78;;;2.70;92.00;;;;;;5075357;28;20037;-72
2021/03/19 00:35:19;;;;;;;10.77;2.90;;;2.70;92.10;;;;;;5074954;28;20388;-72
2021/03/19 00:37:44;;;;;;;7.60;2.83;;;2.60;92.20;;;;;;5075639;28;20036;-72
2021/03/19 00:40:12;;;;;;;6.15;2.60;;;2.60;92.20;;;;;;5057088;28;20041;-72
2021/03/19 00:42:39;;;;;;;10.13;3.00;;;2.60;92.20;;;;;;5075711;28;20107;-72
2021/03/19 00:45:08;;;;;;;13.35;3.42;;;2.70;92.10;;;;;;5074871;28;20047;-72
2021/03/19 00:47:34;;;;;;;12.00;3.20;;;2.60;92.10;;;;;;5075290;28;20507;-72
2021/03/19 00:50:00;;;;;;;14.35;2.80;;;2.60;92.20;;;;;;5074906;28;20089;-72
2021/03/19 00:52:26;;;;;;;8.77;2.80;;;2.60;92.20;;;;;;5075296;28;20047;-72
2021/03/19 00:54:52;;;;;;;7.75;2.72;;;2.60;92.30;;;;;;5075045;28;20040;-72
2021/03/19 00:57:17;;;;;;;7.13;2.80;;;2.60;92.20;;;;;;5073828;28;20507;-72
2021/03/19 00:59:43;;;;;;;17.00;3.22;;;2.60;92.30;;;;;;5057009;28;20028;-72
2021/03/19 01:02:09;;;;;;;16.73;3.90;;;2.50;92.40;;;;;;5074798;28;20494;-72
2021/03/19 01:04:35;;;;;;;9.60;2.85;;;2.40;92.40;;;;;;5056954;28;20036;-72
2021/03/19 01:07:01;;;;;;;10.02;4.05;;;2.40;92.60;;;;;;5074862;28;20058;-72
2021/03/19 01:09:27;;;;;;;12.63;3.28;;;2.40;92.70;;;;;;5075310;28;20368;-72
2021/03/19 01:11:53;;;;;;;11.30;3.22;;;2.30;92.70;;;;;;5075184;28;20477;-72
2021/03/19 01:14:18;;;;;;;14.40;3.35;;;2.40;92.90;;;;;;5074488;28;20111;-72
2021/03/19 01:16:44;;;;;;;10.63;3.33;;;2.30;92.90;;;;;;5074340;28;20372;-72
2021/03/19 01:19:10;;;;;;;12.48;3.17;;;2.30;93.00;;;;;;5074616;28;20093;-72
2021/03/19 01:21:37;;;;;;;8.65;3.13;;;2.30;93.10;;;;;;5074788;28;20044;-72
2021/03/19 01:24:03;;;;;;;11.05;3.53;;;2.30;93.00;;;;;;5074908;28;20032;-72
2021/03/19 01:26:28;;;;;;;6.90;3.65;;;2.30;93.00;;;;;;5074074;28;20040;-72
2021/03/19 01:28:54;;;;;;;14.30;4.10;;;2.30;93.10;;;;;;5056430;28;20422;-72
2021/03/19 01:31:20;;;;;;;10.30;3.53;;;2.30;93.10;;;;;;5074182;28;20492;-72
2021/03/19 01:33:46;;;;;;;14.55;3.80;;;2.30;93.00;;;;;;5074523;28;20067;-72
2021/03/19 01:36:12;;;;;;;10.73;3.42;;;2.20;93.20;;;;;;5073946;28;20040;-72
2021/03/19 01:38:38;;;;;;;9.10;3.47;;;2.20;93.10;;;;;;5074314;28;20040;-72
2021/03/19 01:41:06;;;;;;;13.43;3.97;;;2.30;93.10;;;;;;5056178;28;20040;-72
2021/03/19 01:43:40;;;;;;;7.72;3.47;;;2.30;93.10;;;;;;5074096;28;20032;-72
2021/03/19 01:46:43;;;;;;;8.77;3.63;;;2.30;93.00;;;;;;5073663;28;20074;-72
2021/03/19 01:49:47;;;;;;;7.78;2.97;;;2.30;93.00;;;;;;5073798;28;20449;-72
2021/03/19 01:52:50;;;;;;;16.35;4.38;;;2.40;93.00;;;;;;5073737;28;20041;-72
2021/03/19 01:55:53;;;;;;;5.18;2.72;;;2.40;92.90;;;;;;5055795;28;20106;-72
2021/03/19 01:58:57;;;;;;;11.65;3.30;;;2.50;92.70;;;;;;5056141;28;20480;-72
2021/03/19 02:02:00;;;;;;;11.15;3.38;;;2.40;92.50;;;;;;5073643;28;20040;-72
2021/03/19 02:05:03;;;;;;;8.20;3.15;;;2.40;92.40;;;;;;5073511;28;20043;-72
2021/03/19 02:08:06;;;;;;;7.97;3.42;;;2.40;92.30;;;;;;5073453;28;20033;-72
2021/03/19 02:11:09;;;;;;;18.27;4.63;;;2.40;92.20;;;;;;5073561;28;20388;-72
2021/03/19 02:14:12;;;;;;;12.90;3.42;;;2.30;92.10;;;;;;5073766;28;20037;-72
2021/03/19 02:17:15;;;;;;;11.02;3.22;;;2.30;92.20;;;;;;5072966;28;20041;-72
2021/03/19 02:20:18;;;;;;;9.90;3.88;;;2.40;92.10;;;;;;5074015;28;20058;-72
2021/03/19 02:23:22;;;;;;;11.02;3.20;;;2.30;92.10;;;;;;5073314;28;20040;-72
2021/03/19 02:26:25;;;;;;;8.13;2.55;;;2.30;92.10;;;;;;5073253;28;20552;-72
2021/03/19 02:29:28;;;;;;;8.25;3.42;;;2.30;92.10;;;;;;5077488;28;20047;-72
2021/03/19 02:32:07;;;;;;;7.50;2.75;;;2.30;92.30;;;;;;5077812;28;20068;-72
2021/03/19 02:34:42;;;;;;;9.65;2.63;;;2.20;92.10;;;;;;5077878;28;20041;-72
2021/03/19 02:37:13;;;;;;;6.38;2.97;;;2.20;92.20;;;;;;5077539;28;20094;-72
2021/03/19 02:39:39;;;;;;;8.63;3.20;;;2.20;92.10;;;;;;5077671;28;20106;-72
2021/03/19 02:42:06;;;;;;;8.73;3.08;;;2.20;92.10;;;;;;5075678;28;20072;-72
2021/03/19 02:44:33;;;;;;;7.43;3.08;;;2.20;92.10;;;;;;5055443;28;20093;-72
2021/03/19 02:46:59;;;;;;;10.48;2.72;;;2.20;92.10;;;;;;5073228;28;20037;-72
2021/03/19 02:49:25;;;;;;;7.88;3.08;;;2.20;92.00;;;;;;5073739;28;20044;-72
2021/03/19 02:51:57;;;;;;;8.52;3.45;;;2.20;92.10;;;;;;5073608;28;20403;-72
2021/03/19 02:54:23;;;;;;;12.25;3.25;;;2.10;92.10;;;;;;5073552;28;20041;-72
2021/03/19 02:56:50;;;;;;;11.20;2.95;;;2.10;92.20;;;;;;5073193;28;20044;-72
2021/03/19 02:59:16;;;;;;;6.47;2.55;;;2.00;92.20;;;;;;5073434;28;20048;-72
2021/03/19 03:01:42;;;;;;;10.95;3.08;;;2.00;92.20;;;;;;5073580;28;20041;-72
2021/03/19 03:04:09;;;;;;;8.85;2.80;;;2.00;92.30;;;;;;5073209;28;20095;-72
2021/03/19 03:06:50;;;;;;;7.90;2.75;;;2.10;92.60;;;;;;5073496;28;20063;-72
2021/03/19 03:09:19;;;;;;;16.02;3.55;;;2.10;92.20;;;;;;5073547;28;20086;-72
2021/03/19 03:12:01;;;;;;;8.90;2.67;;;2.10;92.30;;;;;;5073097;28;20032;-72
2021/03/19 03:14:30;;;;;;;11.88;3.25;;;2.00;92.20;;;;;;5073346;28;20388;-72
2021/03/19 03:17:02;;;;;;;10.43;2.95;;;2.00;92.30;;;;;;5054910;28;20037;-72
2021/03/19 03:19:28;;;;;;;9.35;3.38;;;2.00;92.30;;;;;;5072713;28;20511;-72
2021/03/19 03:21:55;;;;;;;9.52;4.97;;;1.90;92.20;;;;;;5076447;28;20083;-72
2021/03/19 03:24:24;;;;;;;15.35;3.22;;;1.90;92.30;;;;;;5077192;28;20484;-72
2021/03/19 03:26:51;;;;;;;10.85;3.67;;;1.90;92.30;;;;;;5077328;28;20060;-72
2021/03/19 03:29:19;;;;;;;7.47;3.20;;;1.90;92.20;;;;;;5076854;28;20044;-72
2021/03/19 03:31:45;;;;;;;11.27;3.25;;;1.90;92.30;;;;;;5076771;28;20500;-72
2021/03/19 03:34:11;;;;;;;8.48;3.50;;;1.80;92.50;;;;;;5076771;28;20514;-72
2021/03/19 03:36:39;;;;;;;6.88;3.05;;;1.80;92.50;;;;;;5076737;28;20044;-72
2021/03/19 03:39:10;;;;;;;9.63;3.25;;;1.80;92.50;;;;;;5076937;28;20048;-72
2021/03/19 03:41:36;;;;;;;7.43;3.20;;;1.80;92.50;;;;;;5076974;28;20103;-72
2021/03/19 03:44:03;;;;;;;10.65;3.42;;;1.90;92.70;;;;;;5077185;28;20098;-72
2021/03/19 03:46:30;;;;;;;8.40;4.22;;;1.90;92.30;;;;;;5076477;28;20106;-72
2021/03/19 03:48:57;;;;;;;8.35;2.97;;;1.90;92.30;;;;;;5077020;28;20106;-72
2021/03/19 03:51:26;;;;;;;12.60;3.83;;;1.90;92.30;;;;;;5076316;28;20056;-72
2021/03/19 03:53:53;;;;;;;7.03;3.88;;;1.90;92.30;;;;;;5076545;28;20117;-72
2021/03/19 03:56:20;;;;;;;9.73;3.95;;;1.80;92.40;;;;;;5076051;28;20149;-72
2021/03/19 03:58:46;;;;;;;10.30;3.88;;;1.70;92.30;;;;;;5076414;28;20044;-71
2021/03/19 04:01:12;;;;;;;14.15;4.07;;;1.70;92.60;;;;;;5076285;28;20048;-71
2021/03/19 04:03:39;;;;;;;12.20;3.80;;;1.60;92.80;;;;;;5076236;28;20074;-71
2021/03/19 04:06:06;;;;;;;13.38;4.93;;;1.60;93.10;;;;;;5075916;28;20056;-71
2021/03/19 04:08:32;;;;;;;21.05;4.50;;;1.50;93.20;;;;;;5076749;28;20045;-71
2021/03/19 04:11:02;;;;;;;11.48;3.80;;;1.60;93.30;;;;;;5076491;28;20435;-71
2021/03/19 04:13:30;;;;;;;7.50;3.63;;;1.60;93.30;;;;;;5075995;28;20496;-72
2021/03/19 04:15:58;;;;;;;10.98;4.30;;;1.70;93.40;;;;;;5075770;28;20080;-72
2021/03/19 04:18:25;;;;;;;10.38;3.97;;;1.70;93.10;;;;;;5075922;28;20420;-72
2021/03/19 04:20:55;;;;;;;11.07;4.53;;;1.70;93.10;;;;;;5076446;28;20053;-72
2021/03/19 04:23:23;;;;;;;12.38;4.68;;;1.60;93.20;;;;;;5076301;28;20052;-72
2021/03/19 04:25:51;;;;;;;17.20;4.47;;;1.60;93.20;;;;;;5075744;28;20052;-72
2021/03/19 04:28:20;;;;;;;13.07;4.30;;;1.60;93.10;;;;;;5057916;28;20045;-72
2021/03/19 04:30:48;;;;;;;9.77;3.97;;;1.70;93.10;;;;;;5076396;28;20098;-72
2021/03/19 04:33:20;;;;;;;15.65;4.15;;;1.70;93.10;;;;;;5074688;28;20056;-72
2021/03/19 04:35:51;;;;;;;11.43;4.70;;;1.70;93.00;;;;;;5075120;28;20048;-72
2021/03/19 04:38:18;;;;;;;9.65;3.55;;;1.80;92.90;;;;;;5076192;28;20102;-72
2021/03/19 04:40:46;;;;;;;9.68;3.80;;;1.80;92.80;;;;;;5075624;28;20052;-72
2021/03/19 04:43:14;;;;;;;10.10;3.80;;;1.80;92.70;;;;;;5075845;28;20074;-72
2021/03/19 04:45:43;;;;;;;14.85;4.28;;;1.80;92.60;;;;;;5075265;28;20110;-72
2021/03/19 04:48:09;;;;;;;14.43;4.20;;;1.80;92.60;;;;;;5075443;28;20098;-72
2021/03/19 04:50:36;;;;;;;11.65;3.83;;;1.80;92.40;;;;;;5075649;28;20076;-72
2021/03/19 04:53:03;;;;;;;5.40;3.42;;;1.80;92.30;;;;;;5075293;28;20225;-72
2021/03/19 04:55:30;;;;;;;9.80;4.32;;;1.80;92.30;;;;;;5074768;28;20045;-72
2021/03/19 04:57:56;;;;;;;12.88;3.67;;;1.70;92.20;;;;;;5075295;28;20075;-72
2021/03/19 05:00:23;;;;;;;13.80;3.88;;;1.70;92.20;;;;;;5075631;28;20041;-72
2021/03/19 05:02:51;;;;;;;9.15;3.65;;;1.70;92.20;;;;;;5075452;28;20053;-72
2021/03/19 05:05:23;;;;;;;7.30;3.65;;;1.70;92.20;;;;;;5074903;28;20045;-72
2021/03/19 05:07:50;;;;;;;9.93;4.05;;;1.70;92.30;;;;;;5075318;28;20049;-72
2021/03/19 05:10:19;;;;;;;17.90;5.70;;;1.70;92.30;;;;;;5074849;28;20048;-72
2021/03/19 05:12:46;;;;;;;10.10;4.03;;;1.70;92.40;;;;;;5075192;28;20048;-72
2021/03/19 05:15:13;;;;;;;9.55;4.38;;;1.70;92.30;;;;;;5074913;28;20074;-72
2021/03/19 05:17:39;;;;;;;13.55;6.60;;;1.70;92.40;;;;;;5074866;28;20067;-72
2021/03/19 05:20:08;;;;;;;11.15;4.20;;;1.60;92.40;;;;;;5074722;28;20430;-72
2021/03/19 05:22:34;;;;;;;8.75;3.95;;;1.60;92.30;;;;;;5074969;28;20048;-72
2021/03/19 05:25:01;;;;;;;9.77;3.85;;;1.60;92.30;;;;;;5074821;28;20049;-72
2021/03/19 05:27:27;;;;;;;11.23;4.07;;;1.50;92.30;;;;;;5075012;28;20121;-72
2021/03/19 05:29:55;;;;;;;10.57;4.30;;;1.50;92.30;;;;;;5074686;28;20161;-72
2021/03/19 05:32:23;;;;;;;11.10;3.97;;;1.50;92.40;;;;;;5075000;28;20048;-72
2021/03/19 05:34:49;;;;;;;10.65;4.05;;;1.50;92.40;;;;;;5074188;28;20048;-72
2021/03/19 05:37:16;;;;;;;12.65;4.47;;;1.50;92.50;;;;;;5074270;28;20098;-72
2021/03/19 05:39:42;;;;;;;12.48;3.92;;;1.50;92.50;;;;;;5074379;28;20074;-72
2021/03/19 05:42:30;;;;;;;13.90;6.13;;;1.50;92.40;;;;;;5074441;28;20055;-70
2021/03/19 05:45:03;;;;;;;8.63;4.55;;;1.50;92.30;;;;;;5073625;28;20126;-71
2021/03/19 05:47:30;;;;;;;9.75;4.78;;;1.50;92.40;;;;;;5074830;28;20106;-71
2021/03/19 05:49:59;;;;;;;12.27;4.43;;;1.50;92.40;;;;;;5074526;28;20079;-71
2021/03/19 05:52:34;;;;;;;12.77;4.53;;;1.50;92.40;;;;;;5074323;28;20512;-71
2021/03/19 05:55:13;;;;;;;16.58;6.18;;;1.50;92.40;;;;;;5074007;28;20496;-71
2021/03/19 05:57:40;;;;;;;10.73;4.78;;;1.60;92.60;;;;;;5074123;28;20376;-71
2021/03/19 06:00:17;;;;;;;12.15;5.00;;;1.50;92.40;;;;;;5074232;28;20098;-71
2021/03/19 06:02:43;;;;;;;14.30;5.22;;;1.50;92.30;;;;;;5074431;28;20044;-71
2021/03/19 06:05:22;;;;;;;11.00;5.50;;;1.50;92.50;;;;;;5073403;28;20071;-71
2021/03/19 06:07:49;;;;;;;11.75;5.20;;;1.50;92.40;;;;;;5074145;28;20045;-71
2021/03/19 06:10:19;;;;;;;13.23;5.28;;;1.50;92.40;;;;;;5073787;28;20045;-71
2021/03/19 06:12:48;;;;;;;15.35;6.75;;;1.50;92.50;;;;;;5073986;28;20074;-71
2021/03/19 06:15:25;;;;;;;13.50;6.20;;;1.50;92.50;;;;;;5073455;28;20083;-71
2021/03/19 06:17:51;;;;;;;14.40;6.75;;;1.40;92.80;;;;;;5055641;28;20051;-71
2021/03/19 06:20:19;;;;;;;15.88;7.20;;;1.50;93.00;;;;;;5073541;28;20048;-71
2021/03/19 06:23:07;;;;;;;18.30;6.30;;;1.50;93.10;;;;;;5073731;28;20048;-71
2021/03/19 06:25:42;;;;;;;23.95;7.70;;;1.60;93.20;;;;;;5073357;28;20052;-71
2021/03/19 06:28:40;;;;;;;18.02;7.65;;;1.60;93.50;;;;;;5058512;28;20510;-71
2021/03/19 06:31:30;;;;;;;21.27;8.07;;;1.60;93.70;;;;;;5059109;28;20040;-71
2021/03/19 06:34:07;;;;;;;19.58;8.73;;;1.70;94.00;;;;;;5073609;28;20047;-70
2021/03/19 06:36:33;;;;;;;16.98;8.70;;;1.80;94.10;;;;;;5072964;28;20044;-71
2021/03/19 06:39:23;;;;;;;18.08;8.80;;;2.00;94.10;;;;;;5059146;28;20048;-71
2021/03/19 06:42:18;;;;;;;20.55;9.23;;;2.20;94.00;;;;;;5058173;28;20047;-71
2021/03/19 06:45:15;;;;;;;13.70;7.72;;;2.30;93.70;;;;;;5058009;28;20109;-71
2021/03/19 06:48:01;;;;;;;16.88;8.40;;;2.50;93.60;;;;;;5058998;28;20045;-71
2021/03/19 06:50:46;;;;;;;18.17;8.30;;;2.80;93.30;;;;;;5059076;28;20076;-71
2021/03/19 06:53:32;;;;;;;16.48;7.75;;;3.00;92.90;;;;;;5058929;28;20088;-71
2021/03/19 06:56:23;;;;;;;18.55;7.07;;;3.30;92.60;;;;;;5060120;28;20044;-71
2021/03/19 06:59:24;;;;;;;13.85;6.78;;;3.50;92.20;;;;;;5049308;28;20047;-71
2021/03/19 07:02:32;;;;;;;14.88;7.13;;;3.60;91.60;;;;;;5062393;28;20067;-71
2021/03/19 07:05:49;;;;;;;10.60;5.43;;;3.90;91.40;;;;;;5062153;28;20048;-71
2021/03/19 07:09:00;;;;;;;14.98;5.80;;;4.10;91.10;;;;;;5062365;28;20465;-71
2021/03/19 07:11:44;;;;;;;10.73;5.47;;;4.30;90.60;;;;;;5077121;28;20476;-71
2021/03/19 07:14:41;;;;;;;10.18;5.65;;;4.50;90.30;;;;;;5061769;28;20047;-71
2021/03/19 07:17:51;;;;;;;10.60;5.72;;;4.60;90.00;;;;;;5061932;28;20071;-71
2021/03/19 07:20:29;;;;;;;16.98;5.80;;;4.90;89.00;;;;;;5077281;28;20109;-71
2021/03/19 07:23:24;;;;;;;11.38;4.88;;;4.90;88.80;;;;;;5059415;28;20043;-71
2021/03/19 07:26:18;;;;;;;8.98;4.88;;;5.10;87.30;;;;;;5061559;28;20050;-71
2021/03/19 07:29:13;;;;;;;;;;;5.20;87.60;;;;;;5048246;28;20052;-71
2021/03/19 07:32:00;;;;;;;12.38;5.78;;;5.30;86.30;;;;;;5081307;28;20344;-71
2021/03/19 07:34:47;;;;;;;11.45;5.10;;;5.40;87.10;;;;;;5076177;28;20050;-71
2021/03/19 07:37:28;;;;;;;11.15;5.20;;;5.60;86.80;;;;;;5076290;28;20044;-71
2021/03/19 07:40:27;;;;;;;12.40;4.97;;;5.70;85.80;;;;;;5061830;28;20063;-71
2021/03/19 07:43:21;;;;;;;8.38;4.60;;;5.80;85.90;;;;;;5047972;28;20078;-71
2021/03/19 07:46:33;;;;;;;10.40;4.60;;;5.90;85.40;;;;;;5061229;28;20045;-71
2021/03/19 07:49:33;;;;;;;10.63;5.10;;;6.00;85.00;;;;;;5048023;28;20131;-71
2021/03/19 07:52:56;;;;;;;8.18;4.20;;;6.00;84.90;;;;;;5061913;28;20090;-71
2021/03/19 07:56:14;;;;;;;8.60;5.20;;;6.20;82.80;;;;;;5061030;28;20051;-71
2021/03/19 07:59:22;;;;;;;9.50;4.70;;;6.20;83.00;;;;;;5061171;28;20049;-71
2021/03/19 08:02:11;;;;;;;9.10;4.25;;;6.30;82.30;;;;;;5061160;28;20036;-71
2021/03/19 08:05:19;;;;;;;8.75;3.97;;;6.50;82.60;;;;;;5060646;28;20511;-71
2021/03/19 08:08:26;;;;;;;11.68;4.80;;;6.40;81.60;;;;;;5061332;28;20040;-71
2021/03/19 08:11:24;;;;;;;6.03;3.90;;;6.60;81.20;;;;;;5061005;28;20055;-71
2021/03/19 08:14:19;;;;;;;7.90;4.22;;;6.90;79.20;;;;;;5061497;28;20044;-71
2021/03/19 08:17:20;;;;;;;7.85;3.88;;;6.90;78.50;;;;;;5060634;28;20098;-71
2021/03/19 08:20:42;;;;;;;7.47;4.07;;;7.20;76.90;;;;;;5060736;28;20467;-71
2021/03/19 08:23:53;;;;;;;6.00;3.25;;;7.00;74.80;;;;;;5061476;28;20082;-71
2021/03/19 08:26:41;;;;;;;8.13;2.90;;;7.10;74.60;;;;;;5060247;28;20106;-71
2021/03/19 08:30:04;;;;;;;9.95;3.70;;;7.20;74.90;;;;;;5060792;28;20185;-71
2021/03/19 08:33:16;;;;;;;10.32;3.25;;;7.20;72.80;;;;;;5061260;28;20079;-71
2021/03/19 08:36:11;;;;;;;8.02;3.47;;;7.20;71.90;;;;;;5060130;28;20395;-71
2021/03/19 08:39:20;;;;;;;9.02;3.63;;;7.10;69.20;;;;;;5060701;28;20051;-71
2021/03/19 08:42:20;;;;;;;7.40;2.95;;;7.20;70.50;;;;;;5046513;28;20044;-71
2021/03/19 08:45:11;;;;;;;6.95;3.30;;;7.40;67.80;;;;;;5060233;28;20044;-71
2021/03/19 08:48:00;;;;;;;10.18;3.28;;;7.40;67.50;;;;;;5060448;28;20059;-71
2021/03/19 08:50:45;;;;;;;5.75;2.78;;;7.30;67.10;;;;;;5060730;28;20048;-71
2021/03/19 08:53:31;;;;;;;6.95;3.47;;;7.30;67.10;;;;;;5060779;28;20044;-71
2021/03/19 08:56:20;;;;;;;5.07;2.53;;;7.40;68.80;;;;;;5059678;28;20040;-71
2021/03/19 08:59:05;;;;;;;4.00;2.33;;;7.50;66.20;;;;;;5060444;28;20059;-71
2021/03/19 09:01:56;;;;;;;8.95;3.25;;;7.50;66.60;;;;;;5060808;28;20036;-71
2021/03/19 09:04:52;;;;;;;6.00;2.65;;;7.60;66.40;;;;;;5074422;28;20144;-71
2021/03/19 09:07:38;;;;;;;4.78;1.95;;;7.60;66.00;;;;;;5074624;28;20037;-71
2021/03/19 09:10:25;;;;;;;3.05;1.88;;;7.70;64.70;;;;;;5060170;28;20048;-71
2021/03/19 09:13:16;;;;;;;2.40;1.70;;;7.80;64.90;;;;;;5059336;28;20049;-71
2021/03/19 09:15:44;;;;;;;6.25;2.38;;;7.70;64.40;;;;;;5074184;28;20107;-71
2021/03/19 09:18:48;;;;;;;3.28;2.03;;;7.60;65.50;;;;;;5073648;28;20047;-71
2021/03/19 09:21:37;;;;;;;5.57;2.03;;;7.70;65.20;;;;;;5060021;28;20465;-71
2021/03/19 09:24:24;;;;;;;3.90;2.08;;;7.50;66.20;;;;;;5059654;28;20045;-72
2021/03/19 09:27:26;;;;;;;4.47;1.80;;;7.50;67.00;;;;;;5059667;28;20048;-71
2021/03/19 09:30:27;;;;;;;5.82;2.10;;;7.50;65.90;;;;;;5059549;28;20102;-71
2021/03/19 09:33:44;;;;;;;3.10;2.25;;;7.50;65.30;;;;;;5059964;28;20045;-71
2021/03/19 09:37:04;;;;;;;4.13;1.85;;;7.50;66.80;;;;;;5059101;28;20040;-71
2021/03/19 09:40:10;;;;;;;3.53;1.70;;;7.40;66.70;;;;;;5059351;28;20044;-72
2021/03/19 09:42:44;;;;;;;4.55;2.13;;;7.40;67.00;;;;;;5073814;28;20037;-71
2021/03/19 09:45:10;;;;;;;6.45;2.15;;;7.50;66.80;;;;;;5073600;28;20406;-71
2021/03/19 09:47:37;;;;;;;7.15;1.90;;;7.50;67.20;;;;;;5073717;28;20093;-71
2021/03/19 09:50:25;;;;;;;5.70;1.90;;;7.60;67.10;;;;;;5059127;28;20139;-71
2021/03/19 09:53:06;;;;;;;3.50;1.63;;;7.70;66.80;;;;;;5073623;28;20113;-71
2021/03/19 09:56:04;;;;;;;4.55;2.22;;;7.70;64.20;;;;;;5058710;28;20048;-71
2021/03/19 09:58:41;;;;;;;3.92;2.10;;;7.80;66.40;;;;;;5074647;28;20051;-71
2021/03/19 10:01:13;;;;;;;3.03;1.98;;;7.80;66.00;;;;;;5073699;28;20050;-72
2021/03/19 10:03:41;;;;;;;5.63;2.65;;;7.70;66.90;;;;;;5073566;28;20561;-71
2021/03/19 10:06:46;;;;;;;6.05;1.75;;;7.70;66.90;;;;;;5058499;28;20075;-71
2021/03/19 10:09:16;;;;;;;4.15;1.70;;;7.50;65.60;;;;;;5073645;28;20048;-72
2021/03/19 10:12:28;;;;;;;4.28;2.33;;;7.40;65.70;;;;;;5045160;28;20045;-71
2021/03/19 10:15:20;;;;;;;5.10;2.95;;;7.30;66.70;;;;;;5058902;28;20085;-71
2021/03/19 10:18:07;;;;;;;6.78;2.05;;;7.30;67.30;;;;;;5058707;28;20059;-71
2021/03/19 10:20:57;;;;;;;3.72;1.70;;;7.30;67.20;;;;;;5059300;28;20084;-72
2021/03/19 10:23:53;;;;;;;2.65;1.42;;;7.20;65.10;;;;;;5045691;28;20048;-71
2021/03/19 10:26:52;;;;;;;4.18;2.17;;;7.30;66.80;;;;;;5058502;28;20062;-71
2021/03/19 10:29:23;;;;;;;5.25;2.15;;;7.20;66.30;;;;;;5073750;28;20052;-71
2021/03/19 10:31:55;;;;;;;4.47;1.95;;;7.30;67.40;;;;;;5076267;28;20047;-71
2021/03/19 10:34:37;;;;;;;7.05;2.22;;;7.40;67.50;;;;;;5072603;28;20063;-71
2021/03/19 10:37:40;;;;;;;4.45;1.80;;;7.60;66.40;;;;;;5058538;28;20404;-72
2021/03/19 10:40:20;;;;;;;2.20;0.70;;;7.70;66.30;;;;;;5073583;28;20044;-71
2021/03/19 10:43:01;;;;;;;1.67;0.75;;;7.90;64.30;;;;;;5073667;28;20116;-71
2021/03/19 10:45:47;;;;;;;4.28;0.40;;;7.90;63.60;;;;;;5055131;28;20461;-72
2021/03/19 10:48:29;;;;;;;1.70;0.80;;;7.70;63.70;;;;;;5073297;28;20094;-71
2021/03/19 10:51:34;;;;;;;3.22;0.90;;;7.90;62.80;;;;;;5058449;28;20080;-71
2021/03/19 10:54:12;;;;;;;2.67;0.55;;;7.90;62.60;;;;;;5073280;28;20047;-72
2021/03/19 10:56:53;;;;;;;3.92;0.95;;;7.80;63.20;;;;;;5072620;28;20442;-71
2021/03/19 10:59:36;;;;;;;3.72;1.75;;;7.80;64.00;;;;;;5073517;28;20033;-71
2021/03/19 11:02:11;;;;;;;4.63;1.15;;;8.00;63.00;;;;;;5073077;28;20078;-71
2021/03/19 11:04:42;;;;;;;3.13;1.15;;;8.10;63.40;;;;;;5072441;28;20044;-72
2021/03/19 11:07:31;;;;;;;3.70;1.75;;;8.10;63.70;;;;;;5073602;28;20574;-71
2021/03/19 11:10:05;;;;;;;1.83;1.35;;;8.10;63.10;;;;;;5073109;28;20073;-72
2021/03/19 11:12:45;;;;;;;2.92;1.13;;;8.10;62.60;;;;;;5073043;28;20059;-72
2021/03/19 11:15:20;;;;;;;2.72;0.80;;;8.20;61.60;;;;;;5072742;28;20063;-72
2021/03/19 11:17:46;;;;;;;3.83;1.00;;;8.20;59.70;;;;;;5072918;28;20049;-72
2021/03/19 11:20:18;;;;;;;1.77;0.88;;;8.30;60.00;;;;;;5073018;28;20052;-72
2021/03/19 11:22:46;;;;;;;6.13;1.40;;;8.20;59.20;;;;;;5077908;28;20036;-71
2021/03/19 11:25:40;;;;;;;2.05;1.15;;;8.10;60.90;;;;;;5072139;28;20049;-68
2021/03/19 11:28:19;;;;;;;3.00;1.25;;;8.30;59.60;;;;;;5072972;28;20090;-67
2021/03/19 11:30:45;;;;;;;2.03;1.20;;;8.40;59.30;;;;;;5072907;28;20117;-67
2021/03/19 11:33:16;;;;;;;3.17;1.13;;;8.30;59.50;;;;;;5072911;28;20499;-68
2021/03/19 11:35:43;;;;;;;3.22;0.65;;;8.10;59.30;;;;;;5072240;28;20037;-68
2021/03/19 11:38:30;;;;;;;1.90;0.90;;;8.10;58.10;;;;;;5072862;28;20048;-67
2021/03/19 11:40:56;;;;;;;1.60;0.60;;;8.20;57.90;;;;;;5072853;28;20041;-68
2021/03/19 11:43:23;;;;;;;1.42;0.45;;;8.30;58.10;;;;;;5077141;28;20049;-67
2021/03/19 11:45:49;;;;;;;1.63;0.50;;;8.30;56.50;;;;;;5075875;28;20183;-67
2021/03/19 11:48:22;;;;;;;3.20;0.50;;;8.40;56.40;;;;;;5076552;28;20056;-67
2021/03/19 11:51:12;;;;;;;1.98;0.50;;;8.30;56.00;;;;;;5076399;28;20044;-67
2021/03/19 11:53:39;;;;;;;2.00;0.50;;;8.40;55.10;;;;;;5075946;28;20045;-67
2021/03/19 11:56:05;;;;;;;1.20;0.30;;;8.30;54.90;;;;;;5076053;28;20048;-67
2021/03/19 11:58:32;;;;;;;1.45;0.55;;;8.30;56.00;;;;;;5076208;28;20392;-67
2021/03/19 12:01:18;;;;;;;1.33;0.40;;;8.40;55.70;;;;;;5062182;28;20037;-67
2021/03/19 12:03:53;;;;;;;1.02;0.40;;;8.60;55.40;;;;;;5058706;28;20101;-67
2021/03/19 12:06:38;;;;;;;1.05;0.40;;;8.60;54.40;;;;;;5060522;28;20484;-67
2021/03/19 12:09:04;;;;;;;1.05;0.40;;;8.50;55.10;;;;;;5076225;28;20123;-68
2021/03/19 12:11:36;;;;;;;0.70;0.40;;;8.50;55.00;;;;;;5076259;28;20037;-68
2021/03/19 12:14:04;;;;;;;0.73;0.65;;;8.30;53.90;;;;;;5076129;28;20400;-67
2021/03/19 12:16:30;;;;;;;1.17;0.40;;;8.00;55.00;;;;;;5075286;28;20036;-68
2021/03/19 12:18:56;;;;;;;2.90;0.40;;;8.00;56.40;;;;;;5075807;28;20049;-67
2021/03/19 12:21:43;;;;;;;2.92;0.93;;;7.90;56.90;;;;;;5061817;28;20094;-68
2021/03/19 12:24:09;;;;;;;2.00;0.88;;;8.00;57.00;;;;;;5058146;28;20041;-67
2021/03/19 12:26:55;;;;;;;1.55;0.32;;;8.30;57.50;;;;;;5060943;28;20049;-68
2021/03/19 12:29:20;;;;;;;2.47;0.68;;;8.40;55.20;;;;;;5072808;28;20040;-68
2021/03/19 12:32:07;;;;;;;1.77;0.43;;;8.50;54.10;;;;;;5062713;28;20072;-68
2021/03/19 12:34:34;;;;;;;10.52;2.53;;;8.50;54.50;;;;;;5095717;28;20513;-68
2021/03/19 12:37:00;;;;;;;1.70;0.47;;;8.60;55.10;;;;;;5095725;28;20059;-68
2021/03/19 12:39:26;;;;;;;0.30;0.30;;;8.80;55.00;;;;;;5095407;28;20406;-67
2021/03/19 12:41:52;;;;;;;1.33;0.40;;;8.70;54.90;;;;;;5095594;28;20036;-67
2021/03/19 12:44:19;;;;;;;2.10;0.40;;;8.80;55.00;;;;;;5095626;28;20052;-68
2021/03/19 12:46:44;;;;;;;1.38;0.40;;;8.90;54.70;;;;;;5095142;28;20039;-67
2021/03/19 12:49:30;;;;;;;1.88;0.43;;;8.80;54.80;;;;;;5080677;28;20514;-67
2021/03/19 12:51:56;;;;;;;1.33;0.35;;;8.80;54.20;;;;;;5095198;28;20043;-68
2021/03/19 12:54:23;;;;;;;1.70;0.45;;;8.80;53.60;;;;;;5093912;28;20111;-69
2021/03/19 12:56:49;;;;;;;0.65;0.30;;;8.80;53.20;;;;;;5094817;28;20119;-67
2021/03/19 12:59:14;;;;;;;0.45;0.20;;;8.70;53.00;;;;;;5094794;28;20485;-67
2021/03/19 13:01:40;;;;;;;2.78;0.30;;;8.70;53.90;;;;;;5094947;28;20040;-67
2021/03/19 13:04:27;;;;;;;0.50;0.28;;;8.60;54.20;;;;;;5079803;28;20499;-68
2021/03/19 13:07:13;;;;;;;1.25;0.35;;;8.60;53.90;;;;;;5079996;28;20066;-67
2021/03/19 13:09:39;;;;;;;0.98;0.20;;;8.60;54.80;;;;;;5094883;28;20523;-67
2021/03/19 13:12:25;;;;;;;0.35;0.20;;;8.70;55.50;;;;;;5079832;28;20044;-67
2021/03/19 13:15:12;;;;;;;0.80;0.20;;;8.70;53.80;;;;;;5080280;28;20146;-67
2021/03/19 13:17:38;;;;;;;0.95;0.40;;;8.70;54.30;;;;;;5094172;28;20040;-67
2021/03/19 13:20:26;;;;;;;3.08;0.77;;;8.90;53.80;;;;;;5079460;28;20491;-67
2021/03/19 13:22:52;;;;;;;0.52;0.20;;;8.90;53.50;;;;;;5094799;28;20111;-67
2021/03/19 13:25:23;;;;;;;1.27;0.30;;;8.90;53.10;;;;;;5094090;28;20055;-67
2021/03/19 13:27:53;;;;;;;2.08;0.40;;;8.80;53.00;;;;;;5094634;28;20119;-67
2021/03/19 13:30:20;;;;;;;1.33;0.52;;;8.80;53.00;;;;;;5076884;28;20472;-67
2021/03/19 13:32:47;;;;;;;0.80;0.20;;;8.70;53.80;;;;;;5094651;28;20117;-67
2021/03/19 13:35:18;;;;;;;1.63;0.28;;;8.70;53.90;;;;;;5094186;28;20127;-67
2021/03/19 13:37:44;;;;;;;0.57;0.22;;;8.70;53.70;;;;;;5094307;28;20455;-68
2021/03/19 13:40:31;;;;;;;3.47;0.30;;;8.50;53.30;;;;;;5079745;28;20079;-67
2021/03/19 13:42:58;;;;;;;2.25;0.40;;;8.50;54.00;;;;;;5094509;28;20472;-67
2021/03/19 13:45:24;;;;;;;0.40;0.25;;;8.60;54.10;;;;;;5094044;28;20035;-72
2021/03/19 13:47:50;;;;;;;1.10;0.20;;;8.50;53.50;;;;;;5093497;28;20479;-73
2021/03/19 13:50:19;;;;;;;0.95;0.30;;;8.50;52.00;;;;;;5093113;28;20036;-73